createdAt,value
2018-11-04T00:00:37.085Z,98642.09
2018-11-04T00:03:07.407Z,98636.20
2018-11-04T00:05:37.779Z,98637.95
2018-11-04T00:08:08.047Z,98642.31
2018-11-04T00:10:40.216Z,98638.00
2018-11-04T00:13:10.530Z,98641.46
2018-11-04T00:15:40.862Z,98635.84
2018-11-04T00:18:11.268Z,98632.51
2018-11-04T00:20:41.549Z,98628.16
2018-11-04T00:23:11.890Z,98625.95
2018-11-04T00:25:42.117Z,98630.35
2018-11-04T00:28:12.437Z,98626.04
2018-11-04T00:30:42.754Z,98622.17
2018-11-04T00:33:13.055Z,98624.38
2018-11-04T00:35:43.371Z,98626.21
2018-11-04T00:38:13.696Z,98620.47
2018-11-04T00:40:43.932Z,98613.55
2018-11-04T00:43:14.216Z,98607.04
2018-11-04T00:45:44.566Z,98610.58
2018-11-04T00:48:14.896Z,98608.02
2018-11-04T00:50:45.180Z,98597.64
2018-11-04T00:53:15.473Z,98604.20
2018-11-04T00:55:52.745Z,98595.66
2018-11-04T00:58:24.010Z,98589.14
2018-11-04T01:00:54.580Z,98592.59
2018-11-04T01:03:24.921Z,98589.02
2018-11-04T01:05:55.215Z,98587.44
2018-11-04T01:08:25.595Z,98578.36
2018-11-04T01:10:55.871Z,98574.90
2018-11-04T01:13:26.139Z,98573.15
2018-11-04T01:15:56.415Z,98575.34
2018-11-04T01:18:26.653Z,98575.34
2018-11-04T01:20:56.957Z,98580.56
2018-11-04T01:23:27.279Z,98575.34
2018-11-04T01:25:57.539Z,98572.79
2018-11-04T01:28:27.897Z,98573.64
2018-11-04T01:30:58.235Z,98575.39
2018-11-04T01:33:28.480Z,98569.38
2018-11-04T01:35:58.679Z,98573.24
2018-11-04T01:38:29.022Z,98567.25
2018-11-04T01:40:59.283Z,98570.68
2018-11-04T01:43:29.627Z,98566.33
2018-11-04T01:45:59.928Z,98568.16
2018-11-04T01:48:30.267Z,98568.61
2018-11-04T01:51:00.569Z,98560.34
2018-11-04T01:53:30.845Z,98551.22
2018-11-04T01:56:01.083Z,98551.72
2018-11-04T01:58:37.657Z,98547.31
2018-11-04T02:01:07.948Z,98541.70
2018-11-04T02:03:38.337Z,98545.20
2018-11-04T02:06:08.653Z,98531.33
2018-11-04T02:08:38.888Z,98541.91
2018-11-04T02:11:09.149Z,98540.26
2018-11-04T02:13:40.503Z,98533.39
2018-11-04T02:16:10.809Z,98529.98
2018-11-04T02:18:41.074Z,98529.44
2018-11-04T02:21:11.322Z,98526.47
2018-11-04T02:23:41.639Z,98525.22
2018-11-04T02:26:11.919Z,98525.22
2018-11-04T02:28:42.380Z,98524.77
2018-11-04T02:31:12.817Z,98516.23
2018-11-04T02:33:43.171Z,98514.07
2018-11-04T02:36:13.459Z,98518.42
2018-11-04T02:38:43.729Z,98505.41
2018-11-04T02:41:14.028Z,98502.41
2018-11-04T02:43:44.358Z,98509.05
2018-11-04T02:46:14.629Z,98509.09
2018-11-04T02:48:44.932Z,98505.69
2018-11-04T02:51:15.243Z,98496.61
2018-11-04T02:53:45.490Z,98497.52
2018-11-04T02:56:15.845Z,98485.92
2018-11-04T02:58:46.106Z,98479.01
2018-11-04T03:01:16.439Z,98481.61
2018-11-04T03:03:46.749Z,98475.05
2018-11-04T03:06:17.093Z,98472.45
2018-11-04T03:08:47.741Z,98476.77
2018-11-04T03:11:18.103Z,98477.70
2018-11-04T03:13:48.391Z,98471.60
2018-11-04T03:16:18.750Z,98464.19
2018-11-04T03:18:49.020Z,98467.73
2018-11-04T03:21:19.405Z,98466.48
2018-11-04T03:23:49.716Z,98456.52
2018-11-04T03:26:20.010Z,98459.17
2018-11-04T03:28:50.290Z,98458.72
2018-11-04T03:31:20.556Z,98457.87
2018-11-04T03:33:50.804Z,98455.67
2018-11-04T03:36:21.059Z,98449.52
2018-11-04T03:38:51.320Z,98448.21
2018-11-04T03:41:21.500Z,98444.30
2018-11-04T03:43:51.794Z,98441.30
2018-11-04T03:46:22.094Z,98448.21
2018-11-04T03:48:52.452Z,98445.16
2018-11-04T03:51:22.733Z,98441.25
2018-11-04T03:53:52.962Z,98443.77
2018-11-04T03:56:23.204Z,98436.40
2018-11-04T03:58:53.442Z,98440.18
2018-11-04T04:01:23.708Z,98447.14
2018-11-04T04:03:54.214Z,98442.73
2018-11-04T04:06:24.760Z,98439.28
2018-11-04T04:08:55.280Z,98436.77
2018-11-04T04:11:25.699Z,98428.95
2018-11-04T04:13:56.099Z,98428.91
2018-11-04T04:16:26.398Z,98430.21
2018-11-04T04:18:56.684Z,98435.38
2018-11-04T04:21:26.970Z,98432.32
2018-11-04T04:23:57.205Z,98431.42
2018-11-04T04:26:27.492Z,98424.45
2018-11-04T04:28:57.968Z,98424.06
2018-11-04T04:31:31.171Z,98409.73
2018-11-04T04:34:01.492Z,98408.94
2018-11-04T04:36:31.801Z,98410.28
2018-11-04T04:39:02.283Z,98407.23
2018-11-04T04:41:32.601Z,98410.73
2018-11-04T04:44:02.839Z,98407.23
2018-11-04T04:46:33.065Z,98406.83
2018-11-04T04:49:03.327Z,98407.76
2018-11-04T04:51:33.607Z,98405.48
2018-11-04T04:54:03.854Z,98408.94
2018-11-04T04:56:34.193Z,98404.03
2018-11-04T04:59:04.499Z,98402.83
2018-11-04T05:01:34.768Z,98405.83
2018-11-04T05:04:05.166Z,98391.05
2018-11-04T05:06:35.409Z,98394.06
2018-11-04T05:09:06.839Z,98391.96
2018-11-04T05:11:37.067Z,98387.16
2018-11-04T05:14:07.331Z,98381.55
2018-11-04T05:16:37.565Z,98385.50
2018-11-04T05:19:07.925Z,98380.73
2018-11-04T05:21:38.159Z,98380.34
2018-11-04T05:24:08.469Z,98389.53
2018-11-04T05:26:38.805Z,98383.80
2018-11-04T05:29:09.099Z,98380.19
2018-11-04T05:31:39.374Z,98379.30
2018-11-04T05:34:09.597Z,98366.82
2018-11-04T05:36:39.747Z,98370.63
2018-11-04T05:39:10.987Z,98368.83
2018-11-04T05:41:41.205Z,98374.85
2018-11-04T05:44:11.549Z,98370.05
2018-11-04T05:46:41.835Z,98373.18
2018-11-04T05:49:12.133Z,98371.03
2018-11-04T05:51:42.457Z,98375.34
2018-11-04T05:54:12.712Z,98373.95
2018-11-04T05:56:43.019Z,98372.60
2018-11-04T05:59:13.301Z,98368.69
2018-11-04T06:01:43.685Z,98372.20
2018-11-04T06:04:14.420Z,98380.84
2018-11-04T06:06:44.981Z,98380.34
2018-11-04T06:09:15.608Z,98381.20
2018-11-04T06:11:46.153Z,98374.64
2018-11-04T06:14:16.428Z,98382.37
2018-11-04T06:16:49.259Z,98384.92
2018-11-04T06:19:19.859Z,98386.17
2018-11-04T06:21:50.369Z,98397.39
2018-11-04T06:24:20.641Z,98394.84
2018-11-04T06:26:51.140Z,98392.69
2018-11-04T06:29:22.393Z,98386.63
2018-11-04T06:31:52.929Z,98382.17
2018-11-04T06:34:23.324Z,98375.88
2018-11-04T06:36:53.694Z,98377.98
2018-11-04T06:39:24.577Z,98374.52
2018-11-04T06:41:55.237Z,98370.56
2018-11-04T06:44:25.626Z,98370.48
2018-11-04T06:46:55.878Z,98376.54
2018-11-04T06:49:26.284Z,98376.99
2018-11-04T06:51:56.818Z,98367.27
2018-11-04T06:54:27.404Z,98368.52
2018-11-04T06:56:57.945Z,98367.53
2018-11-04T06:59:28.561Z,98375.84
2018-11-04T07:01:59.188Z,98379.16
2018-11-04T07:04:30.202Z,98377.84
2018-11-04T07:07:00.886Z,98383.06
2018-11-04T07:09:31.675Z,98385.82
2018-11-04T07:12:02.124Z,98378.35
2018-11-04T07:14:33.107Z,98383.78
2018-11-04T07:17:03.671Z,98375.00
2018-11-04T07:19:34.307Z,98380.62
2018-11-04T07:22:04.893Z,98382.77
2018-11-04T07:24:35.660Z,98384.98
2018-11-04T07:27:06.232Z,98380.43
2018-11-04T07:29:36.628Z,98378.27
2018-11-04T07:32:07.090Z,98387.34
2018-11-04T07:34:37.679Z,98385.44
2018-11-04T07:37:08.078Z,98393.06
2018-11-04T07:39:38.933Z,98386.89
2018-11-04T07:42:09.408Z,98384.09
2018-11-04T07:44:40.770Z,98385.14
2018-11-04T07:47:11.168Z,98388.54
2018-11-04T07:49:41.682Z,98389.70
2018-11-04T07:52:12.030Z,98387.89
2018-11-04T07:54:42.374Z,98387.45
2018-11-04T07:57:12.729Z,98388.24
2018-11-04T07:59:43.673Z,98396.52
2018-11-04T08:02:14.122Z,98395.98
2018-11-04T08:04:44.619Z,98401.89
2018-11-04T08:07:15.115Z,98400.98
2018-11-04T08:09:45.520Z,98397.53
2018-11-04T08:12:15.942Z,98398.27
2018-11-04T08:14:46.451Z,98398.08
2018-11-04T08:17:16.749Z,98395.92
2018-11-04T08:19:47.089Z,98382.72
2018-11-04T08:22:17.381Z,98377.71
2018-11-04T08:24:47.696Z,98379.47
2018-11-04T08:27:18.068Z,98374.95
2018-11-04T08:29:48.322Z,98375.06
2018-11-04T08:32:18.711Z,98378.07
2018-11-04T08:34:48.958Z,98379.43
2018-11-04T08:37:19.249Z,98382.89
2018-11-04T08:39:49.580Z,98374.56
2018-11-04T08:42:19.868Z,98362.97
2018-11-04T08:44:50.204Z,98368.08
2018-11-04T08:47:20.529Z,98372.19
2018-11-04T08:49:50.786Z,98368.08
2018-11-04T08:52:21.135Z,98359.48
2018-11-04T08:54:51.503Z,98358.19
2018-11-04T08:57:21.819Z,98362.30
2018-11-04T08:59:52.281Z,98358.86
2018-11-04T09:02:22.531Z,98353.95
2018-11-04T09:04:52.784Z,98355.71
2018-11-04T09:07:23.107Z,98349.59
2018-11-04T09:09:53.445Z,98350.44
2018-11-04T09:12:23.788Z,98353.59
2018-11-04T09:14:53.959Z,98344.09
2018-11-04T09:17:24.323Z,98346.65
2018-11-04T09:19:54.765Z,98342.73
2018-11-04T09:22:24.999Z,98337.41
2018-11-04T09:24:55.272Z,98327.66
2018-11-04T09:27:25.625Z,98330.01
2018-11-04T09:29:58.863Z,98323.83
2018-11-04T09:32:29.140Z,98318.61
2018-11-04T09:34:59.624Z,98309.02
2018-11-04T09:37:30.302Z,98312.50
2018-11-04T09:40:00.565Z,98307.66
2018-11-04T09:42:31.233Z,98303.74
2018-11-04T09:45:01.437Z,98292.91
2018-11-04T09:47:31.696Z,98291.15
2018-11-04T09:50:02.798Z,98294.48
2018-11-04T09:52:32.912Z,98294.55
2018-11-04T09:55:03.308Z,98299.77
2018-11-04T09:57:33.651Z,98300.67
2018-11-04T10:00:04.042Z,98295.40
2018-11-04T10:02:34.250Z,98289.72
2018-11-04T10:05:04.621Z,98282.95
2018-11-04T10:07:34.840Z,98298.40
2018-11-04T10:10:06.871Z,98289.94
2018-11-04T10:12:37.101Z,98284.38
2018-11-04T10:15:07.876Z,98280.65
2018-11-04T10:17:38.807Z,98286.08
2018-11-04T10:20:10.790Z,98279.04
2018-11-04T10:22:41.533Z,98277.34
2018-11-04T10:25:12.907Z,98263.17
2018-11-04T10:27:44.125Z,98268.11
2018-11-04T10:30:15.579Z,98266.36
2018-11-04T10:32:46.315Z,98262.70
2018-11-04T10:35:16.621Z,98264.02
2018-11-04T10:37:46.917Z,98266.75
2018-11-04T10:40:17.248Z,98271.15
2018-11-04T10:42:47.503Z,98256.58
2018-11-04T10:45:17.783Z,98254.94
2018-11-04T10:47:48.079Z,98245.86
2018-11-04T10:50:18.495Z,98247.45
2018-11-04T10:52:48.759Z,98244.84
2018-11-04T10:55:19.109Z,98248.23
2018-11-04T10:57:49.406Z,98249.50
2018-11-04T11:00:25.095Z,98243.97
2018-11-04T11:02:55.283Z,98238.45
2018-11-04T11:05:25.511Z,98238.47
2018-11-04T11:07:55.831Z,98242.52
2018-11-04T11:10:26.219Z,98241.49
2018-11-04T11:12:56.533Z,98228.39
2018-11-04T11:15:26.851Z,98236.40
2018-11-04T11:17:57.088Z,98219.72
2018-11-04T11:20:27.242Z,98225.94
2018-11-04T11:22:57.751Z,98210.06
2018-11-04T11:25:27.890Z,98199.86
2018-11-04T11:27:58.198Z,98194.63
2018-11-04T11:30:28.463Z,98185.91
2018-11-04T11:32:58.729Z,98183.48
2018-11-04T11:35:28.988Z,98185.25
2018-11-04T11:37:59.293Z,98174.38
2018-11-04T11:40:29.521Z,98176.62
2018-11-04T11:42:59.834Z,98170.48
2018-11-04T11:45:30.122Z,98170.69
2018-11-04T11:48:00.356Z,98175.43
2018-11-04T11:50:30.643Z,98172.27
2018-11-04T11:53:00.851Z,98169.13
2018-11-04T11:55:31.131Z,98163.26
2018-11-04T11:58:07.806Z,98167.86
2018-11-04T12:00:38.125Z,98160.28
2018-11-04T12:03:08.482Z,98168.38
2018-11-04T12:05:39.285Z,98161.78
2018-11-04T12:08:09.529Z,98156.44
2018-11-04T12:10:41.183Z,98156.59
2018-11-04T12:13:11.681Z,98155.61
2018-11-04T12:15:41.995Z,98154.77
2018-11-04T12:18:12.463Z,98147.62
2018-11-04T12:20:43.219Z,98149.58
2018-11-04T12:23:13.576Z,98151.93
2018-11-04T12:25:43.898Z,98148.47
2018-11-04T12:28:34.960Z,98147.69
2018-11-04T12:31:05.613Z,98143.05
2018-11-04T12:33:38.030Z,98132.09
2018-11-04T12:36:10.066Z,98115.47
2018-11-04T12:38:40.324Z,98119.39
2018-11-04T12:41:12.136Z,98130.59
2018-11-04T12:43:42.442Z,98121.64
2018-11-04T12:46:12.761Z,98120.60
2018-11-04T12:48:43.179Z,98114.36
2018-11-04T12:51:13.445Z,98109.03
2018-11-04T12:53:45.638Z,98105.50
2018-11-04T12:56:15.881Z,98100.28
2018-11-04T12:58:46.126Z,98093.78
2018-11-04T13:01:18.491Z,98084.02
2018-11-04T13:03:51.317Z,98087.46
2018-11-04T13:06:21.890Z,98084.29
2018-11-04T13:08:52.642Z,98083.98
2018-11-04T13:11:23.060Z,98088.08
2018-11-04T13:13:53.368Z,98089.60
2018-11-04T13:16:23.679Z,98088.25
2018-11-04T13:18:53.979Z,98087.81
2018-11-04T13:21:24.507Z,98087.70
2018-11-04T13:23:54.785Z,98074.64
2018-11-04T13:26:25.047Z,98068.04
2018-11-04T13:28:55.458Z,98066.02
2018-11-04T13:31:25.686Z,98052.52
2018-11-04T13:33:55.966Z,98052.91
2018-11-04T13:36:26.176Z,98063.90
2018-11-04T13:38:56.469Z,98063.05
2018-11-04T13:41:26.695Z,98063.11
2018-11-04T13:43:57.021Z,98061.19
2018-11-04T13:46:27.332Z,98055.19
2018-11-04T13:48:57.558Z,98055.44
2018-11-04T13:51:27.903Z,98057.48
2018-11-04T13:53:58.174Z,98050.14
2018-11-04T13:56:28.514Z,98059.48
2018-11-04T13:58:59.281Z,98058.55
2018-11-04T14:01:29.553Z,98057.31
2018-11-04T14:03:59.779Z,98049.47
2018-11-04T14:06:30.014Z,98047.42
2018-11-04T14:09:00.234Z,98048.49
2018-11-04T14:11:30.513Z,98037.45
2018-11-04T14:14:00.733Z,98038.64
2018-11-04T14:16:31.079Z,98048.16
2018-11-04T14:19:01.393Z,98051.81
2018-11-04T14:21:31.717Z,98045.48
2018-11-04T14:24:01.930Z,98042.03
2018-11-04T14:26:32.217Z,98035.28
2018-11-04T14:29:02.455Z,98034.75
2018-11-04T14:31:32.815Z,98028.06
2018-11-04T14:34:03.167Z,98034.84
2018-11-04T14:36:33.416Z,98031.31
2018-11-04T14:39:04.837Z,98033.67
2018-11-04T14:41:35.164Z,98037.75
2018-11-04T14:44:06.074Z,98036.13
2018-11-04T14:46:36.504Z,98029.20
2018-11-04T14:49:06.817Z,98028.66
2018-11-04T14:51:37.129Z,98034.80
2018-11-04T14:54:10.460Z,98025.66
2018-11-04T14:56:40.712Z,98028.41
2018-11-04T14:59:10.972Z,98029.68
2018-11-04T15:01:41.499Z,98028.47
2018-11-04T15:04:11.789Z,98024.85
2018-11-04T15:06:42.013Z,98027.72
2018-11-04T15:09:12.501Z,98031.70
2018-11-04T15:11:42.821Z,98024.27
2018-11-04T15:14:13.125Z,98026.32
2018-11-04T15:16:43.534Z,98018.50
2018-11-04T15:19:14.300Z,98018.39
2018-11-04T15:21:45.298Z,98010.27
2018-11-04T15:24:16.219Z,98010.95
2018-11-04T15:26:46.468Z,98000.52
2018-11-04T15:29:16.751Z,98002.28
2018-11-04T15:31:47.064Z,98001.92
2018-11-04T15:34:17.584Z,98015.03
2018-11-04T15:36:47.748Z,98009.10
2018-11-04T15:39:19.111Z,98006.88
2018-11-04T15:41:49.412Z,98000.75
2018-11-04T15:44:19.848Z,97998.59
2018-11-04T15:46:49.980Z,97992.47
2018-11-04T15:49:26.849Z,97993.31
2018-11-04T15:51:57.298Z,97991.94
2018-11-04T15:54:27.552Z,97989.23
2018-11-04T15:57:05.011Z,97978.80
2018-11-04T15:59:35.385Z,97980.49
2018-11-04T16:02:05.959Z,97975.73
2018-11-04T16:04:44.547Z,97968.75
2018-11-04T16:07:06.738Z,97968.16
2018-11-04T16:09:37.571Z,97978.20
2018-11-04T16:12:08.737Z,97985.25
2018-11-04T16:14:39.322Z,97997.00
2018-11-04T16:17:09.728Z,97998.23
2018-11-04T16:19:40.570Z,97994.71
2018-11-04T16:22:10.924Z,98000.32
2018-11-04T16:24:41.287Z,97992.56
2018-11-04T16:27:11.559Z,97989.10
2018-11-04T16:29:42.044Z,97991.00
2018-11-04T16:32:12.369Z,97985.71
2018-11-04T16:34:42.754Z,97986.95
2018-11-04T16:37:13.026Z,97980.88
2018-11-04T16:39:43.332Z,97976.52
2018-11-04T16:42:15.221Z,97983.88
2018-11-04T16:44:45.648Z,97980.42
2018-11-04T16:47:15.861Z,97978.27
2018-11-04T16:49:46.165Z,97979.58
2018-11-04T16:52:16.454Z,97975.59
2018-11-04T16:54:46.732Z,97969.46
2018-11-04T16:57:16.965Z,97972.92
2018-11-04T16:59:47.165Z,97975.98
2018-11-04T17:02:17.493Z,97974.68
2018-11-04T17:04:47.995Z,97976.77
2018-11-04T17:07:18.208Z,97975.92
2018-11-04T17:09:48.576Z,97974.16
2018-11-04T17:12:18.977Z,97975.00
2018-11-04T17:14:49.313Z,97961.95
2018-11-04T17:17:19.565Z,97960.55
2018-11-04T17:19:49.949Z,97963.27
2018-11-04T17:22:20.394Z,97962.88
2018-11-04T17:24:50.939Z,97956.73
2018-11-04T17:27:21.141Z,97958.86
2018-11-04T17:29:51.461Z,97953.57
2018-11-04T17:32:21.785Z,97942.74
2018-11-04T17:34:52.143Z,97946.76
2018-11-04T17:37:22.491Z,97936.39
2018-11-04T17:39:52.793Z,97940.30
2018-11-04T17:42:23.326Z,97939.84
2018-11-04T17:44:53.578Z,97940.12
2018-11-04T17:47:23.838Z,97940.45
2018-11-04T17:49:54.188Z,97927.86
2018-11-04T17:52:24.469Z,97930.47
2018-11-04T17:54:55.745Z,97928.31
2018-11-04T17:57:25.983Z,97932.23
2018-11-04T17:59:56.254Z,97931.25
2018-11-04T18:02:26.651Z,97928.18
2018-11-04T18:04:57.836Z,97924.66
2018-11-04T18:07:28.266Z,97925.05
2018-11-04T18:09:58.562Z,97926.25
2018-11-04T18:12:28.891Z,97927.94
2018-11-04T18:14:59.161Z,97925.72
2018-11-04T18:17:29.471Z,97924.80
2018-11-04T18:20:04.976Z,97925.19
2018-11-04T18:22:35.276Z,97930.87
2018-11-04T18:25:06.408Z,97923.89
2018-11-04T18:27:36.777Z,97921.28
2018-11-04T18:30:09.424Z,97918.59
2018-11-04T18:33:23.995Z,97917.22
2018-11-04T18:35:54.361Z,97924.66
2018-11-04T18:38:24.695Z,97918.20
2018-11-04T18:40:54.935Z,97915.28
2018-11-04T18:43:25.247Z,97908.36
2018-11-04T18:45:55.543Z,97912.35
2018-11-04T18:48:25.838Z,97916.27
2018-11-04T18:50:56.199Z,97914.50
2018-11-04T18:53:26.628Z,97912.67
2018-11-04T18:55:56.906Z,97904.45
2018-11-04T18:59:01.557Z,97906.53
2018-11-04T19:01:31.881Z,97912.67
2018-11-04T19:04:02.216Z,97902.16
2018-11-04T19:06:32.559Z,97901.17
2018-11-04T19:09:03.029Z,97892.88
2018-11-04T19:11:33.414Z,97895.03
2018-11-04T19:14:04.089Z,97889.11
2018-11-04T19:16:34.611Z,97891.33
2018-11-04T19:19:06.204Z,97885.72
2018-11-04T19:21:36.583Z,97888.27
2018-11-04T19:24:07.644Z,97886.50
2018-11-04T19:26:38.043Z,97893.88
2018-11-04T19:29:08.974Z,97886.03
2018-11-04T19:31:39.973Z,97893.88
2018-11-04T19:34:10.403Z,97890.80
2018-11-04T19:36:41.623Z,97884.20
2018-11-04T19:39:13.514Z,97890.17
2018-11-04T19:41:43.953Z,97889.33
2018-11-04T19:44:14.397Z,97877.75
2018-11-04T19:46:44.627Z,97876.91
2018-11-04T19:49:15.827Z,97883.89
2018-11-04T19:51:46.488Z,97886.88
2018-11-04T19:54:17.973Z,97890.73
2018-11-04T19:56:48.383Z,97886.81
2018-11-04T19:59:19.015Z,97879.12
2018-11-04T20:01:49.763Z,97881.73
2018-11-04T20:04:20.269Z,97883.43
2018-11-04T20:06:51.111Z,97889.11
2018-11-04T20:09:21.430Z,97890.94
2018-11-04T20:11:51.730Z,97898.77
2018-11-04T20:14:23.855Z,97891.11
2018-11-04T20:16:54.759Z,97885.97
2018-11-04T20:19:30.419Z,97887.27
2018-11-04T20:22:00.748Z,97887.34
2018-11-04T20:24:39.741Z,97883.95
2018-11-04T20:27:10.324Z,97878.66
2018-11-04T20:29:40.654Z,97875.98
2018-11-04T20:32:16.221Z,97878.66
2018-11-04T20:34:46.560Z,97881.34
2018-11-04T20:37:16.831Z,97878.28
2018-11-04T20:39:52.847Z,97876.13
2018-11-04T20:42:23.128Z,97872.20
2018-11-04T20:44:53.451Z,97877.05
2018-11-04T20:47:31.233Z,97876.20
2018-11-04T20:50:07.640Z,97871.92
2018-11-04T20:52:38.020Z,97863.70
2018-11-04T20:55:08.449Z,97855.88
2018-11-04T20:57:40.426Z,97853.66
2018-11-04T21:00:12.697Z,97849.25
2018-11-04T21:02:43.918Z,97863.78
2018-11-04T21:05:14.266Z,97867.30
2018-11-04T21:07:44.534Z,97862.09
2018-11-04T21:10:14.884Z,97852.56
2018-11-04T21:12:45.218Z,97847.34
2018-11-04T21:15:15.556Z,97850.02
2018-11-04T21:17:45.826Z,97846.95
2018-11-04T21:20:16.103Z,97849.11
2018-11-04T21:22:46.441Z,97848.19
2018-11-04T21:25:16.897Z,97847.80
2018-11-04T21:27:47.192Z,97838.67
2018-11-04T21:30:17.858Z,97836.13
2018-11-04T21:32:48.164Z,97831.02
2018-11-04T21:35:18.776Z,97827.63
2018-11-04T21:37:49.264Z,97830.23
2018-11-04T21:40:19.627Z,97827.92
2018-11-04T21:42:50.129Z,97827.63
2018-11-04T21:45:20.468Z,97837.22
2018-11-04T21:47:50.635Z,97832.46
2018-11-04T21:50:21.087Z,97825.94
2018-11-04T21:52:51.437Z,97827.70
2018-11-04T21:55:22.015Z,97828.62
2018-11-04T21:57:52.074Z,97823.47
2018-11-04T22:00:22.398Z,97823.47
2018-11-04T22:02:52.836Z,97827.56
2018-11-04T22:05:23.008Z,97828.94
2018-11-04T22:07:53.324Z,97834.15
2018-11-04T22:10:23.660Z,97828.86
2018-11-04T22:12:53.963Z,97822.80
2018-11-04T22:15:24.350Z,97818.89
2018-11-04T22:17:54.582Z,97815.43
2018-11-04T22:20:24.926Z,97815.11
2018-11-04T22:22:55.218Z,97818.11
2018-11-04T22:25:25.549Z,97817.79
2018-11-04T22:27:55.950Z,97817.33
2018-11-04T22:30:26.295Z,97823.40
2018-11-04T22:32:56.590Z,97825.23
2018-11-04T22:35:26.892Z,97824.31
2018-11-04T22:37:57.409Z,97838.27
2018-11-04T22:40:27.650Z,97837.67
2018-11-04T22:42:57.901Z,97821.17
2018-11-04T22:45:28.222Z,97808.59
2018-11-04T22:47:58.506Z,97800.23
2018-11-04T22:50:28.737Z,97788.95
2018-11-04T22:52:59.011Z,97794.56
2018-11-04T22:55:29.262Z,97799.39
2018-11-04T22:58:06.876Z,97787.80
2018-11-04T23:00:44.520Z,97784.27
2018-11-04T23:03:14.817Z,97792.63
2018-11-04T23:05:45.300Z,97798.79
2018-11-04T23:08:15.576Z,97798.30
2018-11-04T23:10:45.959Z,97789.66
2018-11-04T23:13:16.204Z,97790.19
2018-11-04T23:15:46.483Z,97785.25
2018-11-04T23:18:16.821Z,97787.51
2018-11-04T23:20:47.185Z,97776.61
2018-11-04T23:23:17.535Z,97771.47
2018-11-04T23:25:47.893Z,97780.88
2018-11-04T23:28:18.279Z,97778.73
2018-11-04T23:30:48.591Z,97780.53
2018-11-04T23:33:19.175Z,97776.61
2018-11-04T23:35:49.511Z,97772.77
2018-11-04T23:38:21.001Z,97769.25
2018-11-04T23:40:51.405Z,97774.99
2018-11-04T23:43:21.802Z,97778.13
2018-11-04T23:45:52.066Z,97776.30
2018-11-04T23:48:22.452Z,97751.34
2018-11-04T23:50:52.811Z,97761.70
2018-11-04T23:53:23.158Z,97766.08
2018-11-04T23:55:53.431Z,97765.34
2018-11-04T23:58:23.765Z,97761.88
